Monday, April 23, 2018 (22:39 UTC)
OPMET DATA
 
Terminal Aerodrome Forecast (TAF) and METAR
TAFs are issued by Aviation Meteorological Office, for Abu Dhabi (OMAA), Bateen (OMAD), Al Ain (OMAL), Dubai (OMDB), Al Maktoum (OMDW), Sharjah (OMSJ), Ras Al Khaimah (OMRK) and Fujairah (OMFJ) airports. These TAFs are issued every 6 hours and are valid for a 30 hour period. METARs (Aviation Routine Weather Reports) are updated hourly.
Show ICAO codes
Select OPMET type:        SEARCH   PRINT
Aviation Meteorology - National Center of Meteorology & Seismology (NCMS)
Telephone: +971 2 5757346 / 5053676
Email: metweb@adiamet.gov.ae
Website: www.avmet.ae
METAR OMAA 232200Z 11004KT 8000 NSC 30/12 Q1007 NOSIG=
METAR OMAD 232200Z 06002KT 8000 NSC 29/13 Q1007 BECMG 12006KT=
METAR OMAL 232200Z 11008KT CAVOK 30/16 Q1010 NOSIG=
METAR OMDB 232200Z 11010KT 070V140 CAVOK 31/14 Q1007 NOSIG=
METAR OMDW 232200Z 11005KT CAVOK 27/19 Q1008 NOSIG=
METAR OMFJ 232200Z 20002KT 7000 NSC 27/21 Q1009 RMK A2981=
METAR OMSJ 232200Z 13006KT CAVOK 28/19 Q1008=
METAR OMRK 232200Z 04005KT CAVOK 27/14 Q1008 A2977=
METAR OTBD 232200Z 33007KT CAVOK 29/18 Q1008 NOSIG=
METAR OTHH 232200Z 34014KT CAVOK 28/17 Q1008 NOSIG=
METAR OBBI 232200Z 35017KT 8000 NSC 26/17 Q1010 NOSIG=
METAR OEDF 232200Z 36014KT CAVOK 25/15 Q1010 NOSIG=
METAR OEDR 232200Z 36018KT 7000 NSC 26/08 Q1008 NOSIG=
METAR OEJN 232200Z 36010KT CAVOK 27/18 Q1007 NOSIG=
METAR OEMA 232200Z 00000KT CAVOK 25/M08 Q1013 NOSIG=
METAR OEPA 232200Z 03005KT CAVOK 20/05 Q1014 NOSIG=
METAR OERF 232200Z 02002KT CAVOK 19/M01 Q1014=
METAR OERK 232200Z 05009KT 4000 DU NSC 23/03 Q1015 NOSIG=
METAR OERR 232200Z 24004KT CAVOK 18/05 Q1014 NOSIG=
METAR OERY NIL=
METAR OESH 232200Z 24015KT 7000 SCT035 SCT080 33/10 Q1011 NOSIG=
METAR OETB 232200Z 00000KT CAVOK 18/M03 Q1014 NOSIG=
METAR OETF 232200Z 18008KT CAVOK 22/11 Q1019 NOSIG=
METAR OETR 232200Z 07002KT CAVOK 17/M02 Q1016=
METAR OEWD 232200Z 12008KT 9999 BKN030 23/22 Q1011 NOSIG=
METAR OEWJ 232200Z 35005KT CAVOK 23/14 Q1009 NOSIG=
METAR OEYN 232200Z 27006KT CAVOK 22/13 Q1008 NOSIG=
METAR OKBK 232200Z 01006KT CAVOK 24/07 Q1012 NOSIG=
METAR OOMS 232150Z 04004KT CAVOK 26/24 Q1009 WS R08L NOSIG=
METAR OOSA 232150Z 09003KT 9999 SCT025 28/24 Q1011 NOSIG=
METAR OYSN NIL=
METAR OYAA NIL=
 
Monday, April 23, 2018 (22:39 UTC)